createdAt,value
2019-01-09T00:00:58.026Z,99.90
2019-01-09T00:03:28.415Z,99.90
2019-01-09T00:05:58.409Z,99.90
2019-01-09T00:08:27.739Z,99.90
2019-01-09T00:10:58.249Z,99.90
2019-01-09T00:13:27.346Z,99.90
2019-01-09T00:15:56.389Z,99.90
2019-01-09T00:18:25.686Z,99.90
2019-01-09T00:20:54.467Z,99.90
2019-01-09T00:23:24.846Z,99.90
2019-01-09T00:25:54.507Z,99.90
2019-01-09T00:28:23.952Z,99.90
2019-01-09T00:30:53.556Z,99.90
2019-01-09T00:33:24.509Z,99.90
2019-01-09T00:35:55.440Z,99.90
2019-01-09T00:38:27.713Z,99.90
2019-01-09T00:40:57.671Z,99.90
2019-01-09T00:43:26.725Z,99.90
2019-01-09T00:45:59.475Z,99.90
2019-01-09T00:48:30.329Z,99.90
2019-01-09T00:50:59.349Z,99.90
2019-01-09T00:53:31.794Z,99.90
2019-01-09T00:56:02.211Z,99.90
2019-01-09T00:58:33.402Z,99.90
2019-01-09T01:01:04.394Z,99.90
2019-01-09T01:04:43.179Z,99.90
2019-01-09T01:08:06.879Z,99.90
2019-01-09T01:11:47.486Z,99.90
2019-01-09T01:15:00.085Z,99.90
2019-01-09T01:18:28.726Z,99.90
2019-01-09T01:21:10.002Z,99.90
2019-01-09T01:24:29.713Z,99.90
2019-01-09T01:27:34.459Z,99.90
2019-01-09T01:31:10.200Z,99.90
2019-01-09T01:34:23.761Z,99.90
2019-01-09T01:37:50.743Z,99.90
2019-01-09T01:40:42.464Z,99.90
2019-01-09T01:44:03.371Z,99.90
2019-01-09T01:47:44.507Z,99.90
2019-01-09T01:51:51.302Z,99.90
2019-01-09T01:55:11.153Z,99.90
2019-01-09T01:58:44.409Z,99.90
2019-01-09T02:02:33.765Z,99.90
2019-01-09T02:05:42.205Z,99.90
2019-01-09T02:09:25.680Z,99.90
2019-01-09T02:12:29.824Z,99.90
2019-01-09T02:16:05.119Z,99.90
2019-01-09T02:19:20.359Z,99.90
2019-01-09T02:22:56.156Z,99.90
2019-01-09T02:26:22.324Z,99.90
2019-01-09T02:29:23.071Z,99.90
2019-01-09T02:32:30.737Z,99.90
2019-01-09T02:35:03.387Z,99.90
2019-01-09T02:37:33.225Z,99.90
2019-01-09T02:40:03.281Z,99.90
2019-01-09T02:42:34.532Z,99.90
2019-01-09T02:45:05.008Z,99.90
2019-01-09T02:47:34.725Z,99.90
2019-01-09T02:50:05.804Z,99.90
2019-01-09T02:52:36.782Z,99.90
2019-01-09T02:55:08.233Z,99.90
2019-01-09T02:57:38.873Z,99.90
2019-01-09T03:00:11.626Z,99.90
2019-01-09T03:02:42.078Z,99.90
2019-01-09T03:05:11.475Z,99.90
2019-01-09T03:07:42.051Z,99.90
2019-01-09T03:10:12.969Z,99.90
2019-01-09T03:12:43.121Z,99.90
2019-01-09T03:15:12.745Z,99.90
2019-01-09T03:17:42.988Z,99.90
2019-01-09T03:20:13.114Z,99.90
2019-01-09T03:22:42.085Z,99.90
2019-01-09T03:25:11.810Z,99.90
2019-01-09T03:27:41.330Z,99.90
2019-01-09T03:30:12.305Z,99.90
2019-01-09T03:32:40.912Z,99.90
2019-01-09T03:35:11.624Z,99.90
2019-01-09T03:37:41.038Z,99.90
2019-01-09T03:40:10.528Z,99.90
2019-01-09T03:42:40.412Z,99.90
2019-01-09T03:45:10.018Z,99.90
2019-01-09T03:47:40.854Z,99.90
2019-01-09T03:50:10.781Z,99.90
2019-01-09T03:52:40.600Z,99.90
2019-01-09T03:55:10.232Z,99.90
2019-01-09T03:57:40.797Z,99.90
2019-01-09T04:00:10.922Z,99.90
2019-01-09T04:02:40.924Z,99.90
2019-01-09T04:05:12.967Z,99.90
2019-01-09T04:07:43.076Z,99.90
2019-01-09T04:10:13.946Z,99.90
2019-01-09T04:12:44.702Z,99.90
2019-01-09T04:15:14.824Z,99.90
2019-01-09T04:17:44.568Z,99.90
2019-01-09T04:20:14.641Z,99.90
2019-01-09T04:22:44.577Z,99.90
2019-01-09T04:25:18.624Z,99.90
2019-01-09T04:27:49.192Z,99.90
2019-01-09T04:30:18.850Z,99.90
2019-01-09T04:32:47.711Z,99.90
2019-01-09T04:35:17.137Z,99.90
2019-01-09T04:37:48.109Z,99.90
2019-01-09T04:40:20.067Z,99.90
2019-01-09T04:42:51.199Z,99.90
2019-01-09T04:45:21.271Z,99.90
2019-01-09T04:47:51.294Z,99.90
2019-01-09T04:50:21.812Z,99.90
2019-01-09T04:52:51.695Z,99.90
2019-01-09T04:55:21.056Z,99.90
2019-01-09T04:57:51.362Z,99.90
2019-01-09T05:00:21.404Z,99.90
2019-01-09T05:02:50.945Z,99.90
2019-01-09T05:05:21.713Z,99.90
2019-01-09T05:07:52.959Z,99.90
2019-01-09T05:10:23.425Z,99.90
2019-01-09T05:12:53.888Z,99.90
2019-01-09T05:15:23.094Z,99.90
2019-01-09T05:17:52.319Z,99.90
2019-01-09T05:20:21.288Z,99.90
2019-01-09T05:22:50.146Z,99.90
2019-01-09T05:25:19.934Z,99.90
2019-01-09T05:27:50.009Z,99.90
2019-01-09T05:30:20.261Z,99.90
2019-01-09T05:32:49.390Z,99.90
2019-01-09T05:35:19.237Z,99.90
2019-01-09T05:37:49.029Z,99.90
2019-01-09T05:40:20.195Z,99.90
2019-01-09T05:42:49.140Z,99.90
2019-01-09T05:45:18.685Z,99.90
2019-01-09T05:47:55.081Z,99.90
2019-01-09T05:50:24.709Z,99.90
2019-01-09T05:52:54.353Z,99.90
2019-01-09T05:55:25.005Z,99.90
2019-01-09T05:57:54.564Z,99.90
2019-01-09T06:00:24.524Z,99.90
2019-01-09T06:03:07.563Z,99.90
2019-01-09T06:05:37.518Z,99.90
2019-01-09T06:08:06.686Z,99.90
2019-01-09T06:10:36.279Z,99.90
2019-01-09T06:13:07.103Z,99.90
2019-01-09T06:15:37.631Z,99.90
2019-01-09T06:18:08.317Z,99.90
2019-01-09T06:20:38.204Z,99.90
2019-01-09T06:23:07.953Z,99.90
2019-01-09T06:25:37.481Z,99.90
2019-01-09T06:28:08.296Z,99.90
2019-01-09T06:30:37.594Z,99.90
2019-01-09T06:33:08.086Z,99.90
2019-01-09T06:35:38.269Z,99.90
2019-01-09T06:38:09.238Z,99.90
2019-01-09T06:40:39.756Z,99.90
2019-01-09T06:43:10.837Z,99.90
2019-01-09T06:45:40.613Z,99.90
2019-01-09T06:48:16.596Z,99.90
2019-01-09T06:50:48.213Z,99.90
2019-01-09T06:53:18.126Z,99.90
2019-01-09T06:55:48.738Z,99.90
2019-01-09T06:58:20.143Z,99.90
2019-01-09T07:00:49.031Z,99.90
2019-01-09T07:03:21.076Z,99.90
2019-01-09T07:05:51.431Z,99.90
2019-01-09T07:08:21.494Z,99.90
2019-01-09T07:10:50.854Z,99.90
2019-01-09T07:13:21.183Z,99.90
2019-01-09T07:15:50.313Z,99.90
2019-01-09T07:18:19.998Z,99.90
2019-01-09T07:20:50.636Z,99.90
2019-01-09T07:23:20.201Z,99.90
2019-01-09T07:25:50.761Z,99.90
2019-01-09T07:28:22.129Z,99.90
2019-01-09T07:30:52.813Z,99.90
2019-01-09T07:33:23.528Z,99.90
2019-01-09T07:35:55.436Z,99.90
2019-01-09T07:38:25.624Z,99.90
2019-01-09T07:40:57.186Z,99.90
2019-01-09T07:43:26.664Z,99.90
2019-01-09T07:45:58.579Z,99.90
2019-01-09T07:48:28.745Z,99.90
2019-01-09T07:50:58.823Z,99.90
2019-01-09T07:53:29.378Z,99.90
2019-01-09T07:56:05.569Z,99.90
2019-01-09T07:58:36.356Z,99.90
2019-01-09T08:01:06.518Z,99.90
2019-01-09T08:03:35.791Z,99.90
2019-01-09T08:06:06.274Z,99.90
2019-01-09T08:08:36.446Z,99.90
2019-01-09T08:11:07.150Z,99.90
2019-01-09T08:13:36.401Z,99.90
2019-01-09T08:16:07.666Z,99.90
2019-01-09T08:18:38.801Z,99.90
2019-01-09T08:21:08.358Z,99.90
2019-01-09T08:23:37.747Z,99.90
2019-01-09T08:26:09.685Z,99.90
2019-01-09T08:29:00.413Z,99.90
2019-01-09T08:31:33.718Z,97.40
2019-01-09T08:34:03.584Z,92.00
2019-01-09T08:36:35.786Z,92.60
2019-01-09T08:39:07.063Z,92.50
2019-01-09T08:41:37.243Z,86.20
2019-01-09T08:44:06.639Z,82.50
2019-01-09T08:46:37.282Z,83.10
2019-01-09T08:49:07.299Z,81.30
2019-01-09T08:51:36.541Z,82.80
2019-01-09T08:54:06.619Z,79.80
2019-01-09T08:56:37.538Z,81.40
2019-01-09T08:59:08.307Z,80.10
2019-01-09T09:01:44.746Z,80.30
2019-01-09T09:04:14.324Z,77.50
2019-01-09T09:06:46.165Z,75.50
2019-01-09T09:09:17.023Z,74.10
2019-01-09T09:11:46.748Z,72.40
2019-01-09T09:14:16.924Z,73.00
2019-01-09T09:16:48.248Z,72.80
2019-01-09T09:19:18.265Z,72.10
2019-01-09T09:21:48.366Z,73.10
2019-01-09T09:24:18.326Z,73.60
2019-01-09T09:26:50.158Z,70.00
2019-01-09T09:29:22.518Z,67.60
2019-01-09T09:31:52.118Z,65.20
2019-01-09T09:34:39.964Z,65.50
2019-01-09T09:37:08.986Z,62.80
2019-01-09T09:39:39.183Z,60.90
2019-01-09T09:42:12.603Z,59.40
2019-01-09T09:44:44.708Z,59.90
2019-01-09T09:47:13.976Z,61.40
2019-01-09T09:49:44.026Z,57.30
2019-01-09T09:52:13.799Z,54.40
2019-01-09T09:54:44.695Z,53.90
2019-01-09T09:57:16.761Z,54.90
2019-01-09T09:59:45.707Z,54.00
2019-01-09T10:02:15.631Z,53.60
2019-01-09T10:04:45.561Z,52.60
2019-01-09T10:07:15.086Z,54.40
2019-01-09T10:09:44.923Z,55.80
2019-01-09T10:12:15.211Z,56.50
2019-01-09T10:14:44.576Z,55.30
2019-01-09T10:17:15.935Z,52.00
2019-01-09T10:19:47.581Z,51.30
2019-01-09T10:22:17.154Z,50.30
2019-01-09T10:24:47.614Z,50.50
2019-01-09T10:27:16.923Z,50.10
2019-01-09T10:29:53.696Z,49.50
2019-01-09T10:32:23.082Z,46.50
2019-01-09T10:34:54.366Z,47.70
2019-01-09T10:37:24.396Z,45.60
2019-01-09T10:39:55.313Z,45.60
2019-01-09T10:42:25.428Z,44.00
2019-01-09T10:44:55.424Z,43.40
2019-01-09T10:47:25.831Z,45.30
2019-01-09T10:49:57.679Z,44.40
2019-01-09T10:52:27.064Z,45.90
2019-01-09T10:54:57.571Z,49.00
2019-01-09T10:57:27.306Z,46.00
2019-01-09T10:59:57.821Z,44.70
2019-01-09T11:02:27.443Z,43.80
2019-01-09T11:04:58.139Z,43.80
2019-01-09T11:07:28.446Z,43.20
2019-01-09T11:09:58.811Z,42.90
2019-01-09T11:12:29.133Z,41.20
2019-01-09T11:15:00.296Z,41.00
2019-01-09T11:17:32.419Z,41.00
2019-01-09T11:20:02.206Z,41.30
2019-01-09T11:22:31.921Z,40.00
2019-01-09T11:25:01.840Z,38.00
2019-01-09T11:27:32.646Z,38.30
2019-01-09T11:30:04.106Z,38.80
2019-01-09T11:32:37.036Z,39.10
2019-01-09T11:35:08.727Z,36.90
2019-01-09T11:37:39.786Z,39.20
2019-01-09T11:40:11.922Z,40.30
2019-01-09T11:42:42.918Z,41.20
2019-01-09T11:45:16.651Z,42.40
2019-01-09T11:47:48.241Z,43.90
2019-01-09T11:50:19.214Z,44.60
2019-01-09T11:52:50.484Z,46.30
2019-01-09T11:55:21.387Z,45.70
2019-01-09T11:57:51.010Z,45.70
2019-01-09T12:00:27.369Z,44.40
2019-01-09T12:02:58.326Z,44.00
2019-01-09T12:05:29.092Z,45.00
2019-01-09T12:08:00.769Z,40.90
2019-01-09T12:10:32.161Z,41.70
2019-01-09T12:13:03.741Z,41.00
2019-01-09T12:15:34.231Z,40.20
2019-01-09T12:18:04.455Z,39.60
2019-01-09T12:20:33.756Z,38.70
2019-01-09T12:23:02.783Z,36.80
2019-01-09T12:25:32.509Z,38.10
2019-01-09T12:28:02.112Z,39.80
2019-01-09T12:30:32.060Z,38.60
2019-01-09T12:33:03.489Z,36.60
2019-01-09T12:35:32.681Z,31.80
2019-01-09T12:38:03.725Z,30.60
2019-01-09T12:40:33.641Z,30.30
2019-01-09T12:43:04.340Z,30.20
2019-01-09T12:45:34.792Z,29.60
2019-01-09T12:48:05.133Z,29.90
2019-01-09T12:50:36.389Z,29.30
2019-01-09T12:53:08.546Z,29.40
2019-01-09T12:55:39.902Z,29.60
2019-01-09T12:58:10.941Z,28.50
2019-01-09T13:00:41.514Z,28.50
2019-01-09T13:03:13.956Z,27.90
2019-01-09T13:05:44.039Z,28.20
2019-01-09T13:08:14.154Z,28.80
2019-01-09T13:10:44.389Z,28.60
2019-01-09T13:13:15.123Z,28.40
2019-01-09T13:15:45.111Z,28.60
2019-01-09T13:18:15.534Z,27.90
2019-01-09T13:20:45.615Z,28.90
2019-01-09T13:23:16.396Z,28.60
2019-01-09T13:25:45.648Z,28.80
2019-01-09T13:28:15.318Z,27.90
2019-01-09T13:30:47.631Z,27.60
2019-01-09T13:33:19.101Z,28.20
2019-01-09T13:35:52.544Z,28.00
2019-01-09T13:38:23.317Z,26.70
2019-01-09T13:40:55.189Z,27.50
2019-01-09T13:43:26.246Z,28.40
2019-01-09T13:45:55.114Z,28.70
2019-01-09T13:48:25.470Z,28.30
2019-01-09T13:50:55.152Z,29.30
2019-01-09T13:53:24.379Z,29.30
2019-01-09T13:55:55.509Z,28.60
2019-01-09T13:58:27.184Z,27.40
2019-01-09T14:00:58.211Z,27.70
2019-01-09T14:03:28.604Z,27.40
2019-01-09T14:05:59.741Z,26.60
2019-01-09T14:08:30.926Z,26.90
2019-01-09T14:11:01.012Z,27.50
2019-01-09T14:13:32.696Z,25.20
2019-01-09T14:16:04.241Z,24.00
2019-01-09T14:18:35.484Z,25.50
2019-01-09T14:21:05.025Z,26.50
2019-01-09T14:23:34.445Z,27.40
2019-01-09T14:26:04.891Z,28.10
2019-01-09T14:28:36.186Z,29.10
2019-01-09T14:31:06.611Z,30.40
2019-01-09T14:33:36.489Z,32.10
2019-01-09T14:36:08.016Z,33.20
2019-01-09T14:38:38.258Z,34.10
2019-01-09T14:41:08.929Z,34.90
2019-01-09T14:43:37.945Z,36.00
2019-01-09T14:46:08.343Z,37.00
2019-01-09T14:48:39.611Z,38.10
2019-01-09T14:51:09.308Z,38.70
2019-01-09T14:53:38.273Z,39.20
2019-01-09T14:56:07.439Z,40.40
2019-01-09T14:58:48.816Z,41.20
2019-01-09T15:01:18.014Z,42.90
2019-01-09T15:03:49.214Z,44.90
2019-01-09T15:06:19.605Z,50.20
2019-01-09T15:08:49.943Z,53.40
2019-01-09T15:11:20.739Z,55.40
2019-01-09T15:13:51.601Z,56.30
2019-01-09T15:16:22.657Z,58.00
2019-01-09T15:18:53.066Z,59.20
2019-01-09T15:21:22.649Z,59.60
2019-01-09T15:23:52.742Z,59.80
2019-01-09T15:26:22.970Z,60.10
2019-01-09T15:28:53.871Z,60.70
2019-01-09T15:31:24.447Z,61.20
2019-01-09T15:33:55.540Z,61.90
2019-01-09T15:36:26.321Z,62.40
2019-01-09T15:38:55.747Z,62.80
2019-01-09T15:41:25.777Z,63.50
2019-01-09T15:43:55.369Z,63.80
2019-01-09T15:46:25.261Z,64.60
2019-01-09T15:48:56.664Z,65.40
2019-01-09T15:51:26.309Z,65.80
2019-01-09T15:53:56.480Z,66.10
2019-01-09T15:56:27.494Z,66.10
2019-01-09T15:58:59.577Z,65.60
2019-01-09T16:01:28.855Z,65.60
2019-01-09T16:04:00.961Z,65.80
2019-01-09T16:06:32.251Z,66.10
2019-01-09T16:09:05.547Z,66.80
2019-01-09T16:11:36.517Z,67.60
2019-01-09T16:14:05.740Z,67.90
2019-01-09T16:16:36.156Z,68.20
2019-01-09T16:19:05.541Z,68.60
2019-01-09T16:21:35.777Z,68.90
2019-01-09T16:24:06.330Z,69.70
2019-01-09T16:26:37.242Z,70.90
2019-01-09T16:29:08.002Z,71.80
2019-01-09T16:31:41.089Z,73.00
2019-01-09T16:34:11.800Z,74.20
2019-01-09T16:36:42.957Z,75.10
2019-01-09T16:39:12.689Z,76.00
2019-01-09T16:41:43.678Z,76.70
2019-01-09T16:44:15.388Z,77.10
2019-01-09T16:46:47.515Z,77.60
2019-01-09T16:49:18.145Z,77.50
2019-01-09T16:51:47.612Z,77.50
2019-01-09T16:54:17.870Z,78.30
2019-01-09T16:56:47.962Z,79.50
2019-01-09T16:59:19.177Z,80.10
2019-01-09T17:01:50.370Z,80.70
2019-01-09T17:04:19.841Z,81.00
2019-01-09T17:06:50.185Z,81.80
2019-01-09T17:09:19.689Z,82.00
2019-01-09T17:11:51.652Z,81.60
2019-01-09T17:14:21.643Z,82.00
2019-01-09T17:16:53.734Z,81.60
2019-01-09T17:19:23.335Z,81.00
2019-01-09T17:21:52.377Z,81.00
2019-01-09T17:24:22.275Z,80.80
2019-01-09T17:26:52.482Z,81.00
2019-01-09T17:29:23.577Z,81.00
2019-01-09T17:31:54.822Z,81.60
2019-01-09T17:34:25.479Z,81.50
2019-01-09T17:36:56.480Z,82.80
2019-01-09T17:39:27.325Z,82.70
2019-01-09T17:41:59.007Z,83.20
2019-01-09T17:44:29.915Z,82.90
2019-01-09T17:47:02.632Z,83.80
2019-01-09T17:49:32.861Z,83.20
2019-01-09T17:52:02.437Z,83.20
2019-01-09T17:54:33.134Z,80.80
2019-01-09T17:57:03.768Z,78.90
2019-01-09T17:59:35.912Z,78.30
2019-01-09T18:02:08.326Z,78.30
2019-01-09T18:04:40.405Z,78.50
2019-01-09T18:07:12.753Z,78.40
2019-01-09T18:09:43.757Z,77.90
2019-01-09T18:12:15.504Z,77.60
2019-01-09T18:14:48.582Z,77.70
2019-01-09T18:17:22.624Z,76.30
2019-01-09T18:19:53.989Z,75.20
2019-01-09T18:22:26.226Z,73.70
2019-01-09T18:24:57.310Z,72.90
2019-01-09T18:27:29.859Z,73.10
2019-01-09T18:30:01.601Z,73.50
2019-01-09T18:33:03.173Z,74.20
2019-01-09T18:36:26.611Z,74.70
2019-01-09T18:39:48.502Z,76.00
2019-01-09T18:42:42.999Z,77.00
2019-01-09T18:46:00.731Z,78.60
2019-01-09T18:49:01.757Z,79.40
2019-01-09T18:52:19.069Z,80.60
2019-01-09T18:54:49.175Z,81.60
2019-01-09T18:57:21.823Z,82.30
2019-01-09T18:59:53.835Z,82.10
2019-01-09T19:02:24.579Z,81.30
2019-01-09T19:04:54.688Z,81.10
2019-01-09T19:07:26.187Z,80.80
2019-01-09T19:10:00.207Z,81.10
2019-01-09T19:12:30.962Z,81.90
2019-01-09T19:15:08.621Z,82.20
2019-01-09T19:17:39.876Z,81.30
2019-01-09T19:20:13.140Z,83.10
2019-01-09T19:22:45.209Z,83.00
2019-01-09T19:25:18.016Z,82.80
2019-01-09T19:27:51.658Z,82.30
2019-01-09T19:30:29.642Z,77.00
2019-01-09T19:33:06.928Z,77.40
2019-01-09T19:35:41.477Z,74.60
2019-01-09T19:38:17.812Z,73.90
2019-01-09T19:40:51.130Z,68.90
2019-01-09T19:43:23.150Z,69.80
2019-01-09T19:45:59.173Z,66.60
2019-01-09T19:48:35.050Z,66.80
2019-01-09T19:51:17.694Z,61.50
2019-01-09T19:53:50.729Z,61.60
2019-01-09T19:56:23.586Z,62.80
2019-01-09T19:58:59.532Z,60.90
2019-01-09T20:01:43.979Z,60.50
2019-01-09T20:04:18.376Z,59.50
2019-01-09T20:06:54.814Z,58.60
2019-01-09T20:09:28.893Z,58.30
2019-01-09T20:12:04.754Z,58.40
2019-01-09T20:14:44.668Z,57.70
2019-01-09T20:17:20.305Z,57.30
2019-01-09T20:19:55.783Z,56.20
2019-01-09T20:22:29.251Z,55.90
2019-01-09T20:25:05.794Z,55.90
2019-01-09T20:27:39.660Z,56.40
2019-01-09T20:30:23.091Z,57.00
2019-01-09T20:32:59.288Z,57.40
2019-01-09T20:35:36.455Z,58.10
2019-01-09T20:38:14.038Z,58.60
2019-01-09T20:40:49.392Z,57.70
2019-01-09T20:43:29.340Z,57.50
2019-01-09T20:46:05.351Z,57.30
2019-01-09T20:48:40.402Z,57.30
2019-01-09T20:51:19.813Z,57.50
2019-01-09T20:53:54.207Z,58.60
2019-01-09T20:56:31.203Z,57.40
2019-01-09T20:59:09.450Z,57.00
2019-01-09T21:01:47.965Z,56.90
2019-01-09T21:04:21.045Z,56.60
2019-01-09T21:06:54.122Z,57.50
2019-01-09T21:09:35.689Z,58.60
2019-01-09T21:12:12.236Z,56.20
2019-01-09T21:14:47.733Z,57.90
2019-01-09T21:17:18.677Z,59.40
2019-01-09T21:19:49.617Z,60.00
2019-01-09T21:22:19.913Z,61.50
2019-01-09T21:24:52.159Z,63.70
2019-01-09T21:27:22.294Z,65.10
2019-01-09T21:29:53.042Z,67.90
2019-01-09T21:32:23.862Z,69.90
2019-01-09T21:34:55.766Z,75.00
2019-01-09T21:37:25.652Z,77.60
2019-01-09T21:39:56.999Z,79.90
2019-01-09T21:42:27.770Z,81.00
2019-01-09T21:44:59.717Z,80.00
2019-01-09T21:47:29.075Z,78.70
2019-01-09T21:49:59.215Z,80.50
2019-01-09T21:52:29.652Z,80.80
2019-01-09T21:54:59.401Z,75.80
2019-01-09T21:57:30.604Z,70.70
2019-01-09T22:00:02.751Z,68.90
2019-01-09T22:02:33.690Z,67.80
2019-01-09T22:05:05.581Z,66.80
2019-01-09T22:07:37.165Z,67.60
2019-01-09T22:10:13.716Z,67.00
2019-01-09T22:12:43.871Z,64.90
2019-01-09T22:15:15.636Z,63.60
2019-01-09T22:17:46.285Z,63.20
2019-01-09T22:20:17.761Z,61.90
2019-01-09T22:22:48.910Z,60.60
2019-01-09T22:25:18.817Z,59.20
2019-01-09T22:27:48.944Z,58.90
2019-01-09T22:30:24.247Z,58.20
2019-01-09T22:32:54.989Z,57.90
2019-01-09T22:35:25.398Z,57.50
2019-01-09T22:37:57.824Z,55.90
2019-01-09T22:40:27.274Z,54.50
2019-01-09T22:42:58.180Z,54.60
2019-01-09T22:45:29.183Z,54.90
2019-01-09T22:47:59.688Z,54.80
2019-01-09T22:50:30.049Z,55.20
2019-01-09T22:52:59.533Z,55.70
2019-01-09T22:55:28.133Z,55.90
2019-01-09T22:57:58.081Z,56.10
2019-01-09T23:01:25.874Z,56.20
2019-01-09T23:03:58.266Z,56.70
2019-01-09T23:06:27.637Z,57.30
2019-01-09T23:08:58.214Z,57.20
2019-01-09T23:11:28.490Z,57.40
2019-01-09T23:13:58.685Z,57.60
2019-01-09T23:16:28.192Z,57.80
2019-01-09T23:18:57.851Z,58.10
2019-01-09T23:21:27.074Z,58.60
2019-01-09T23:23:58.054Z,59.00
2019-01-09T23:26:28.995Z,59.80
2019-01-09T23:28:58.540Z,59.60
2019-01-09T23:31:32.856Z,59.60
2019-01-09T23:34:03.121Z,59.40
2019-01-09T23:36:33.305Z,58.70
2019-01-09T23:39:09.231Z,58.70
2019-01-09T23:41:41.354Z,59.20
2019-01-09T23:44:11.035Z,59.10
2019-01-09T23:46:40.498Z,59.10
2019-01-09T23:49:10.079Z,58.80
2019-01-09T23:51:39.631Z,59.00
2019-01-09T23:54:08.836Z,59.20
2019-01-09T23:56:39.236Z,59.60
2019-01-09T23:59:09.008Z,59.80
